Time;durP1;ratioP1;P1;durP2;ratioP2;P2;SDS_P1;SDS_P2;PMS_P1;PMS_P2;Temp;Humidity;BMP_temperature;BMP_pressure;BME280_temperature;BME280_humidity;BME280_pressure;Samples;Min_cycle;Max_cycle;Signal;HPM_P1;HPM_P2
2022/03/03 00:01:51;;;;;;;18.65;13.32;;;;;;;;;;4992616;28;20235;-50
2022/03/03 00:04:18;;;;;;;19.93;13.23;;;;;;;;;;4994116;28;20205;-49
2022/03/03 00:06:44;;;;;;;22.52;13.13;;;;;;;;;;4994118;28;20409;-49
2022/03/03 00:09:10;;;;;;;19.77;12.95;;;;;;;;;;5006828;28;20271;-49
2022/03/03 00:11:38;;;;;;;25.30;14.45;;;;;;;;;;5013534;28;20227;-49
2022/03/03 00:14:04;;;;;;;26.48;13.50;;;;;;;;;;5011351;28;20227;-49
2022/03/03 00:16:30;;;;;;;27.08;13.50;;;;;;;;;;4993840;28;20173;-49
2022/03/03 00:18:56;;;;;;;28.08;13.30;;;;;;;;;;4993565;28;20243;-49
2022/03/03 00:21:22;;;;;;;26.42;14.80;;;;;;;;;;4993523;28;20180;-47
2022/03/03 00:23:48;;;;;;;34.33;14.70;;;;;;;;;;4992208;28;20697;-47
2022/03/03 00:26:14;;;;;;;27.80;16.17;;;;;;;;;;4974854;28;21056;-48
2022/03/03 00:28:40;;;;;;;40.55;15.95;;;;;;;;;;4993466;28;20938;-47
2022/03/03 00:31:06;;;;;;;24.87;13.80;;;;;;;;;;4993723;28;20177;-47
2022/03/03 00:33:32;;;;;;;24.35;13.80;;;;;;;;;;4993422;28;20410;-47
2022/03/03 00:35:58;;;;;;;32.90;13.60;;;;;;;;;;4993856;28;20173;-47
2022/03/03 00:38:24;;;;;;;19.50;12.03;;;;;;;;;;4993016;28;20431;-46
2022/03/03 00:40:50;;;;;;;20.30;12.50;;;;;;;;;;4993442;28;20500;-47
2022/03/03 00:43:16;;;;;;;21.55;13.23;;;;;;;;;;4993349;28;20459;-47
2022/03/03 00:45:42;;;;;;;20.03;11.97;;;;;;;;;;4993418;28;20165;-47
2022/03/03 00:48:08;;;;;;;23.80;13.40;;;;;;;;;;4993110;28;20895;-47
2022/03/03 00:50:34;;;;;;;24.27;13.77;;;;;;;;;;4993149;28;20405;-47
2022/03/03 00:53:00;;;;;;;21.05;11.90;;;;;;;;;;4993041;28;20168;-47
2022/03/03 00:55:26;;;;;;;27.00;13.05;;;;;;;;;;4992608;28;20173;-47
2022/03/03 00:57:52;;;;;;;22.47;13.23;;;;;;;;;;4992855;28;20260;-47
2022/03/03 01:00:18;;;;;;;20.90;12.40;;;;;;;;;;4975575;28;20899;-47
2022/03/03 01:02:49;;;;;;;21.17;13.60;;;;;;;;;;4992882;28;20962;-46
2022/03/03 01:05:15;;;;;;;18.73;12.27;;;;;;;;;;4992946;28;20175;-46
2022/03/03 01:07:42;;;;;;;32.47;14.20;;;;;;;;;;4993749;28;20168;-48
2022/03/03 01:10:08;;;;;;;27.25;13.63;;;;;;;;;;5012243;28;20188;-47
2022/03/03 01:12:34;;;;;;;15.55;11.82;;;;;;;;;;5012473;28;20196;-47
2022/03/03 01:15:01;;;;;;;25.45;13.15;;;;;;;;;;5012458;28;20259;-48
2022/03/03 01:17:27;;;;;;;24.70;13.05;;;;;;;;;;5012294;28;20667;-47
2022/03/03 01:19:53;;;;;;;29.00;13.33;;;;;;;;;;5011965;28;20219;-47
2022/03/03 01:22:19;;;;;;;20.00;13.37;;;;;;;;;;5011995;28;20878;-47
2022/03/03 01:24:45;;;;;;;22.40;12.75;;;;;;;;;;5012108;28;20406;-47
2022/03/03 01:27:11;;;;;;;24.15;14.27;;;;;;;;;;5012222;28;20185;-47
2022/03/03 01:29:37;;;;;;;24.98;15.15;;;;;;;;;;5011783;28;20679;-47
2022/03/03 01:32:04;;;;;;;24.75;14.70;;;;;;;;;;5011860;28;20180;-46
2022/03/03 01:34:30;;;;;;;26.00;13.45;;;;;;;;;;5012046;28;20174;-47
2022/03/03 01:36:56;;;;;;;21.60;13.73;;;;;;;;;;5012127;28;20176;-47
2022/03/03 01:39:23;;;;;;;21.55;14.02;;;;;;;;;;5012149;28;20427;-46
2022/03/03 01:41:49;;;;;;;23.35;13.23;;;;;;;;;;5010354;28;20235;-46
2022/03/03 01:44:16;;;;;;;25.80;13.55;;;;;;;;;;5011886;28;20250;-47
2022/03/03 01:46:49;;;;;;;21.45;12.68;;;;;;;;;;5010369;28;20183;-46
2022/03/03 01:52:19;;;;;;;23.20;14.32;;;;;;;;;;5011959;28;20242;-46
2022/03/03 01:54:45;;;;;;;23.75;13.15;;;;;;;;;;5011716;28;20221;-46
2022/03/03 01:57:11;;;;;;;23.42;13.00;;;;;;;;;;5011832;28;20199;-46
2022/03/03 01:59:38;;;;;;;24.13;13.63;;;;;;;;;;5011492;28;20188;-46
2022/03/03 02:02:06;;;;;;;21.98;13.05;;;;;;;;;;5011419;28;20200;-46
2022/03/03 02:04:32;;;;;;;25.60;12.80;;;;;;;;;;5011380;28;20512;-46
2022/03/03 02:07:00;;;;;;;23.48;14.73;;;;;;;;;;5010633;28;20175;-46
2022/03/03 02:09:26;;;;;;;29.48;13.50;;;;;;;;;;5011000;28;20180;-46
2022/03/03 02:11:52;;;;;;;27.92;14.48;;;;;;;;;;5011142;28;20651;-46
2022/03/03 02:14:18;;;;;;;21.67;13.88;;;;;;;;;;5011837;28;20214;-46
2022/03/03 02:16:44;;;;;;;23.55;12.93;;;;;;;;;;5011300;28;20175;-46
2022/03/03 02:19:20;;;;;;;19.40;12.90;;;;;;;;;;5009572;28;20265;-46
2022/03/03 02:21:46;;;;;;;24.23;13.70;;;;;;;;;;5011078;28;20194;-46
2022/03/03 02:24:13;;;;;;;27.65;13.20;;;;;;;;;;5011299;28;20196;-46
2022/03/03 02:26:39;;;;;;;26.10;14.30;;;;;;;;;;5011574;28;20222;-46
2022/03/03 02:29:05;;;;;;;24.60;13.45;;;;;;;;;;5010961;28;20184;-46
2022/03/03 02:31:31;;;;;;;24.58;13.35;;;;;;;;;;5011138;28;20542;-46
2022/03/03 02:33:58;;;;;;;25.48;13.52;;;;;;;;;;5011140;28;20168;-46
2022/03/03 02:36:25;;;;;;;22.15;13.25;;;;;;;;;;5009898;28;20172;-45
2022/03/03 02:38:52;;;;;;;23.83;13.10;;;;;;;;;;5010792;28;20672;-46
2022/03/03 02:41:18;;;;;;;20.23;13.88;;;;;;;;;;5010958;28;20168;-46
2022/03/03 02:43:46;;;;;;;23.77;13.93;;;;;;;;;;5011058;28;20521;-46
2022/03/03 02:46:12;;;;;;;29.58;13.43;;;;;;;;;;5011033;28;20168;-47
2022/03/03 02:48:38;;;;;;;25.05;12.93;;;;;;;;;;5010741;28;20698;-46
2022/03/03 02:51:04;;;;;;;33.20;13.97;;;;;;;;;;5010804;28;20207;-46
2022/03/03 02:53:30;;;;;;;28.58;15.70;;;;;;;;;;5009765;28;20460;-46
2022/03/03 02:55:56;;;;;;;30.63;17.07;;;;;;;;;;5010940;28;20582;-46
2022/03/03 02:58:54;;;;;;;31.20;17.27;;;;;;;;;;5008983;28;20477;-46
2022/03/03 03:01:20;;;;;;;30.45;16.13;;;;;;;;;;5011084;28;20267;-46
2022/03/03 03:03:46;;;;;;;28.23;14.47;;;;;;;;;;5010768;28;20256;-46
2022/03/03 03:06:13;;;;;;;24.13;13.00;;;;;;;;;;5010837;28;20395;-46
2022/03/03 03:08:39;;;;;;;22.95;14.57;;;;;;;;;;5010478;28;20431;-46
2022/03/03 03:11:05;;;;;;;25.20;14.23;;;;;;;;;;5010159;28;20235;-46
2022/03/03 03:13:31;;;;;;;23.47;14.03;;;;;;;;;;5010014;28;20415;-46
2022/03/03 03:15:57;;;;;;;27.50;13.03;;;;;;;;;;5010465;28;20438;-46
2022/03/03 03:18:23;;;;;;;28.55;14.02;;;;;;;;;;5012986;28;20451;-46
2022/03/03 03:20:53;;;;;;;27.42;13.98;;;;;;;;;;5013161;28;20225;-46
2022/03/03 03:23:20;;;;;;;21.98;14.50;;;;;;;;;;5014297;28;20663;-46
2022/03/03 03:25:46;;;;;;;26.33;14.70;;;;;;;;;;5014422;28;20180;-46
2022/03/03 03:28:16;;;;;;;24.13;13.65;;;;;;;;;;5013971;28;20184;-46
2022/03/03 03:30:42;;;;;;;24.63;12.75;;;;;;;;;;5014332;28;20626;-46
2022/03/03 03:33:08;;;;;;;27.80;15.20;;;;;;;;;;5013056;28;20184;-46
2022/03/03 03:35:34;;;;;;;21.50;12.77;;;;;;;;;;5013149;28;20279;-46
2022/03/03 03:38:01;;;;;;;26.75;15.15;;;;;;;;;;5013951;28;20662;-46
2022/03/03 03:40:27;;;;;;;31.20;14.25;;;;;;;;;;5014550;28;20176;-46
2022/03/03 03:42:53;;;;;;;26.80;15.53;;;;;;;;;;5013866;28;20286;-46
2022/03/03 03:45:19;;;;;;;32.40;14.80;;;;;;;;;;5014007;28;20458;-46
2022/03/03 03:47:45;;;;;;;26.95;14.15;;;;;;;;;;5013962;28;20168;-46
2022/03/03 03:50:12;;;;;;;25.33;13.75;;;;;;;;;;5013800;28;20235;-46
2022/03/03 03:52:38;;;;;;;21.95;14.10;;;;;;;;;;5013942;28;20652;-46
2022/03/03 03:55:05;;;;;;;24.50;14.43;;;;;;;;;;5013872;28;20172;-46
2022/03/03 03:57:31;;;;;;;27.52;15.10;;;;;;;;;;5012376;28;20184;-46
2022/03/03 03:59:57;;;;;;;30.08;14.80;;;;;;;;;;5013497;28;20191;-46
2022/03/03 04:02:23;;;;;;;32.38;14.48;;;;;;;;;;5013462;28;20196;-46
2022/03/03 04:04:49;;;;;;;24.00;13.45;;;;;;;;;;5013585;28;20176;-46
2022/03/03 04:07:15;;;;;;;23.50;15.10;;;;;;;;;;5013547;28;20161;-46
2022/03/03 04:09:41;;;;;;;26.63;14.90;;;;;;;;;;5013139;28;20820;-46
2022/03/03 04:12:08;;;;;;;17.53;12.13;;;;;;;;;;5013258;28;20744;-46
2022/03/03 04:14:34;;;;;;;22.45;14.40;;;;;;;;;;5013564;28;20403;-46
2022/03/03 04:17:00;;;;;;;22.83;15.50;;;;;;;;;;5013316;28;20703;-46
2022/03/03 04:19:26;;;;;;;27.73;15.77;;;;;;;;;;5012970;28;20442;-46
2022/03/03 04:21:52;;;;;;;29.00;14.80;;;;;;;;;;5013533;28;20619;-46
2022/03/03 04:24:19;;;;;;;25.67;13.77;;;;;;;;;;5013245;28;20438;-46
2022/03/03 04:26:45;;;;;;;31.88;14.05;;;;;;;;;;5013574;28;20434;-46
2022/03/03 04:29:11;;;;;;;24.27;13.03;;;;;;;;;;5010978;28;20192;-46
2022/03/03 04:31:37;;;;;;;24.30;14.87;;;;;;;;;;5013120;28;20434;-46
2022/03/03 04:34:03;;;;;;;28.77;14.40;;;;;;;;;;5013149;28;20982;-46
2022/03/03 04:36:29;;;;;;;28.70;14.07;;;;;;;;;;5012980;28;20410;-46
2022/03/03 04:38:55;;;;;;;20.53;14.10;;;;;;;;;;5012586;28;20185;-46
2022/03/03 04:41:21;;;;;;;23.05;13.10;;;;;;;;;;5012819;28;20458;-46
2022/03/03 04:43:47;;;;;;;16.80;12.00;;;;;;;;;;5012791;28;20176;-46
2022/03/03 04:46:13;;;;;;;21.63;12.93;;;;;;;;;;5011555;28;20415;-46
2022/03/03 04:48:39;;;;;;;20.60;12.35;;;;;;;;;;5012482;28;20858;-46
2022/03/03 04:51:05;;;;;;;21.48;12.80;;;;;;;;;;5012663;28;20194;-46
2022/03/03 04:53:31;;;;;;;23.03;12.73;;;;;;;;;;5012616;28;20617;-46
2022/03/03 04:55:58;;;;;;;24.77;14.03;;;;;;;;;;5012784;28;20407;-46
2022/03/03 04:58:24;;;;;;;23.13;13.13;;;;;;;;;;5010988;28;20435;-46
2022/03/03 05:00:52;;;;;;;21.65;13.70;;;;;;;;;;5012594;28;20185;-46
2022/03/03 05:03:18;;;;;;;21.42;13.15;;;;;;;;;;5012341;28;20295;-46
2022/03/03 05:05:44;;;;;;;22.23;13.00;;;;;;;;;;5012324;28;20251;-46
2022/03/03 05:08:11;;;;;;;24.70;13.90;;;;;;;;;;5011893;28;20197;-46
2022/03/03 05:10:37;;;;;;;21.50;12.75;;;;;;;;;;5012397;28;20169;-46
2022/03/03 05:13:03;;;;;;;25.35;13.18;;;;;;;;;;5012339;28;20217;-45
2022/03/03 05:15:29;;;;;;;21.33;13.20;;;;;;;;;;5012480;28;20270;-46
2022/03/03 05:17:55;;;;;;;24.58;13.75;;;;;;;;;;5012008;28;20465;-46
2022/03/03 05:20:21;;;;;;;21.00;13.55;;;;;;;;;;5012275;28;20180;-46
2022/03/03 05:22:47;;;;;;;20.30;12.38;;;;;;;;;;5012137;28;20533;-46
2022/03/03 05:25:13;;;;;;;20.55;11.80;;;;;;;;;;5012369;28;20648;-46
2022/03/03 05:27:43;;;;;;;20.52;11.70;;;;;;;;;;5012347;28;20258;-46
2022/03/03 05:30:09;;;;;;;20.40;12.00;;;;;;;;;;5012186;28;20196;-46
2022/03/03 05:32:36;;;;;;;27.85;12.60;;;;;;;;;;5010722;28;20576;-46
2022/03/03 05:35:03;;;;;;;18.60;12.75;;;;;;;;;;5011998;28;20566;-46
2022/03/03 05:37:29;;;;;;;26.30;14.35;;;;;;;;;;5010688;28;20188;-46
2022/03/03 05:39:55;;;;;;;22.60;11.33;;;;;;;;;;5011827;28;20199;-46
2022/03/03 05:42:23;;;;;;;21.42;12.55;;;;;;;;;;5012027;28;20458;-46
2022/03/03 05:44:49;;;;;;;23.00;13.32;;;;;;;;;;5010470;28;20711;-46
2022/03/03 05:47:15;;;;;;;19.15;11.98;;;;;;;;;;5011942;28;20239;-46
2022/03/03 05:49:43;;;;;;;27.80;13.05;;;;;;;;;;5011540;28;20176;-46
2022/03/03 05:52:13;;;;;;;19.35;12.18;;;;;;;;;;5011506;28;20274;-46
2022/03/03 05:54:39;;;;;;;20.63;12.35;;;;;;;;;;5011621;28;20199;-46
2022/03/03 05:57:13;;;;;;;19.30;12.05;;;;;;;;;;5012093;28;20179;-46
2022/03/03 05:59:44;;;;;;;19.25;11.50;;;;;;;;;;5011406;28;20249;-46
2022/03/03 06:02:10;;;;;;;19.45;11.65;;;;;;;;;;5011484;28;20242;-46
2022/03/03 06:04:38;;;;;;;21.15;13.57;;;;;;;;;;5011344;28;20183;-46
2022/03/03 06:07:07;;;;;;;20.40;12.63;;;;;;;;;;5011475;28;20182;-46
2022/03/03 06:09:34;;;;;;;25.45;12.88;;;;;;;;;;5011046;28;20188;-46
2022/03/03 06:12:09;;;;;;;24.88;13.23;;;;;;;;;;5011651;28;20165;-46
2022/03/03 06:14:40;;;;;;;24.58;12.60;;;;;;;;;;5011921;28;20175;-46
2022/03/03 06:17:07;;;;;;;22.45;11.00;;;;;;;;;;5011396;28;20640;-46
2022/03/03 06:19:39;;;;;;;22.15;13.25;;;;;;;;;;5011202;28;20192;-47
2022/03/03 06:22:06;;;;;;;27.23;14.82;;;;;;;;;;5011375;28;20578;-46
2022/03/03 06:24:32;;;;;;;30.10;16.67;;;;;;;;;;5011584;28;20169;-46
2022/03/03 06:26:58;;;;;;;32.08;16.30;;;;;;;;;;5011736;28;20165;-46
2022/03/03 06:29:24;;;;;;;30.50;13.43;;;;;;;;;;5009994;28;20246;-46
2022/03/03 06:31:50;;;;;;;23.23;11.93;;;;;;;;;;5010929;28;20958;-46
2022/03/03 06:34:16;;;;;;;24.40;13.37;;;;;;;;;;5009989;28;20845;-46
2022/03/03 06:36:42;;;;;;;29.70;12.87;;;;;;;;;;5010622;28;20809;-47
2022/03/03 06:39:08;;;;;;;27.27;13.63;;;;;;;;;;5011056;28;20778;-47
2022/03/03 06:41:34;;;;;;;23.15;12.63;;;;;;;;;;5010653;28;20404;-46
2022/03/03 06:44:00;;;;;;;29.57;12.23;;;;;;;;;;5010557;28;20199;-46
2022/03/03 06:46:26;;;;;;;22.90;12.30;;;;;;;;;;5011705;28;20403;-46
2022/03/03 06:48:52;;;;;;;25.93;13.37;;;;;;;;;;5011262;28;20412;-46
2022/03/03 06:51:20;;;;;;;16.80;11.00;;;;;;;;;;5011051;28;20434;-46
2022/03/03 06:53:46;;;;;;;21.90;11.70;;;;;;;;;;5014533;28;20438;-44
2022/03/03 06:56:13;;;;;;;19.45;11.63;;;;;;;;;;5015348;28;20179;-44
2022/03/03 06:58:39;;;;;;;22.35;12.32;;;;;;;;;;5015151;28;20702;-44
2022/03/03 07:01:07;;;;;;;26.58;11.70;;;;;;;;;;5015471;28;20650;-44
2022/03/03 07:03:33;;;;;;;18.23;11.82;;;;;;;;;;5015429;28;20282;-44
2022/03/03 07:05:58;;;;;;;23.75;12.07;;;;;;;;;;5015499;28;20172;-44
2022/03/03 07:08:24;;;;;;;19.80;11.30;;;;;;;;;;5015055;28;20192;-47
2022/03/03 07:10:50;;;;;;;16.37;10.53;;;;;;;;;;5015257;28;20400;-43
2022/03/03 07:13:17;;;;;;;20.20;12.00;;;;;;;;;;5014835;28;20396;-44
2022/03/03 07:15:49;;;;;;;17.60;11.93;;;;;;;;;;5015503;28;20403;-45
2022/03/03 07:18:17;;;;;;;19.30;11.73;;;;;;;;;;5006179;28;20243;-44
2022/03/03 07:20:51;;;;;;;19.90;12.30;;;;;;;;;;4994807;28;20228;-44
2022/03/03 07:23:20;;;;;;;20.30;12.13;;;;;;;;;;4994471;28;20204;-44
2022/03/03 07:25:51;;;;;;;16.63;12.05;;;;;;;;;;4994847;28;20184;-46
2022/03/03 07:28:18;;;;;;;21.58;11.30;;;;;;;;;;4994569;28;20181;-44
2022/03/03 07:30:44;;;;;;;18.25;12.13;;;;;;;;;;4994974;28;20639;-48
2022/03/03 07:33:16;;;;;;;15.80;11.65;;;;;;;;;;4994761;28;20596;-49
2022/03/03 07:35:46;;;;;;;28.47;13.80;;;;;;;;;;4995151;28;20538;-44
2022/03/03 07:38:14;;;;;;;19.50;12.87;;;;;;;;;;4994497;28;20417;-45
2022/03/03 07:40:43;;;;;;;19.33;13.77;;;;;;;;;;4994734;28;20407;-46
2022/03/03 07:43:10;;;;;;;19.30;12.63;;;;;;;;;;4994206;28;20452;-46
2022/03/03 07:45:36;;;;;;;16.23;12.00;;;;;;;;;;4994357;28;20400;-47
2022/03/03 07:48:02;;;;;;;21.37;13.43;;;;;;;;;;4993939;28;20411;-48
2022/03/03 07:50:28;;;;;;;20.43;13.27;;;;;;;;;;4994186;28;20411;-50
2022/03/03 07:52:54;;;;;;;21.63;12.60;;;;;;;;;;4994027;28;20420;-47
2022/03/03 07:55:21;;;;;;;26.70;16.57;;;;;;;;;;4994495;28;20748;-50
2022/03/03 07:57:57;;;;;;;22.70;13.33;;;;;;;;;;4992432;28;20400;-51
2022/03/03 08:00:24;;;;;;;19.13;12.70;;;;;;;;;;4992366;28;20400;-51
2022/03/03 08:02:53;;;;;;;25.57;12.03;;;;;;;;;;4992722;28;21090;-51
2022/03/03 08:05:22;;;;;;;28.33;13.83;;;;;;;;;;4992462;28;20821;-49
2022/03/03 08:07:48;;;;;;;19.30;12.50;;;;;;;;;;4993801;28;20771;-52
2022/03/03 08:10:15;;;;;;;21.10;14.17;;;;;;;;;;4993723;28;20511;-49
2022/03/03 08:12:42;;;;;;;18.10;13.57;;;;;;;;;;4993839;28;20490;-51
2022/03/03 08:15:09;;;;;;;26.97;14.97;;;;;;;;;;4993803;28;20483;-52
2022/03/03 08:17:36;;;;;;;21.17;13.53;;;;;;;;;;4993771;28;20499;-52
2022/03/03 08:20:06;;;;;;;23.33;15.73;;;;;;;;;;4993332;28;20424;-50
2022/03/03 08:22:32;;;;;;;19.77;13.70;;;;;;;;;;4994081;28;20451;-51
2022/03/03 08:24:58;;;;;;;31.00;15.67;;;;;;;;;;4993849;28;20483;-52
2022/03/03 08:27:25;;;;;;;18.47;14.93;;;;;;;;;;4993818;28;20492;-52
2022/03/03 08:29:51;;;;;;;24.60;16.63;;;;;;;;;;4993954;28;20416;-52
2022/03/03 08:32:18;;;;;;;26.63;15.07;;;;;;;;;;4993753;28;20408;-52
2022/03/03 08:35:00;;;;;;;25.30;14.43;;;;;;;;;;4993657;28;20432;-52
2022/03/03 08:37:30;;;;;;;20.87;14.03;;;;;;;;;;4993949;28;20491;-51
2022/03/03 08:40:00;;;;;;;21.10;15.77;;;;;;;;;;4993327;28;20448;-51
2022/03/03 08:42:27;;;;;;;23.30;15.27;;;;;;;;;;4993330;28;20951;-51
2022/03/03 08:44:54;;;;;;;23.70;15.43;;;;;;;;;;4993087;28;20807;-51
2022/03/03 08:47:21;;;;;;;20.20;14.20;;;;;;;;;;4993240;28;20408;-52
2022/03/03 08:49:49;;;;;;;20.30;13.90;;;;;;;;;;4993228;28;20425;-49
2022/03/03 08:52:16;;;;;;;22.23;13.90;;;;;;;;;;4993096;28;20431;-52
2022/03/03 08:54:42;;;;;;;22.90;13.63;;;;;;;;;;4993110;28;20408;-51
2022/03/03 08:57:08;;;;;;;17.93;14.07;;;;;;;;;;4993040;28;20404;-51
2022/03/03 08:59:34;;;;;;;23.03;13.67;;;;;;;;;;4992468;28;20789;-52
2022/03/03 09:02:00;;;;;;;20.50;13.30;;;;;;;;;;4991417;28;20824;-51
2022/03/03 09:04:26;;;;;;;19.03;13.47;;;;;;;;;;4991824;28;20412;-50
2022/03/03 09:06:52;;;;;;;18.70;13.50;;;;;;;;;;4990898;28;20408;-52
2022/03/03 09:09:18;;;;;;;19.53;13.07;;;;;;;;;;4996885;28;20518;-52
2022/03/03 09:11:44;;;;;;;22.10;12.70;;;;;;;;;;5000623;28;20417;-52
2022/03/03 09:14:11;;;;;;;20.27;14.10;;;;;;;;;;5008929;28;20788;-50
2022/03/03 09:16:37;;;;;;;18.30;12.90;;;;;;;;;;4998832;28;20415;-50
2022/03/03 09:19:03;;;;;;;23.27;14.33;;;;;;;;;;4992011;28;20530;-50
2022/03/03 09:21:29;;;;;;;24.50;14.50;;;;;;;;;;4992733;28;20420;-48
2022/03/03 09:23:55;;;;;;;22.03;13.37;;;;;;;;;;4992603;28;20497;-48
2022/03/03 09:26:21;;;;;;;21.93;12.33;;;;;;;;;;5003369;28;20413;-47
2022/03/03 09:28:47;;;;;;;20.07;13.83;;;;;;;;;;5003608;28;20433;-48
2022/03/03 09:31:13;;;;;;;17.00;13.40;;;;;;;;;;4991593;28;20455;-49
2022/03/03 09:33:39;;;;;;;23.03;12.37;;;;;;;;;;4974469;28;20424;-51
2022/03/03 09:36:05;;;;;;;18.80;14.30;;;;;;;;;;4973750;28;20431;-51
2022/03/03 09:38:31;;;;;;;22.30;13.87;;;;;;;;;;4992003;28;20439;-48
2022/03/03 09:40:57;;;;;;;17.70;12.80;;;;;;;;;;4992443;28;20441;-49
2022/03/03 09:43:25;;;;;;;19.03;12.50;;;;;;;;;;5002388;28;20446;-49
2022/03/03 09:45:51;;;;;;;19.43;13.43;;;;;;;;;;5011843;28;20944;-49
2022/03/03 09:48:17;;;;;;;20.17;13.43;;;;;;;;;;4995633;28;20444;-48
2022/03/03 09:50:43;;;;;;;19.60;12.80;;;;;;;;;;4992108;28;20416;-50
2022/03/03 09:53:13;;;;;;;21.33;13.00;;;;;;;;;;4991826;28;20431;-50
2022/03/03 09:55:41;;;;;;;17.87;12.77;;;;;;;;;;4991937;28;20435;-49
2022/03/03 09:58:07;;;;;;;19.70;13.90;;;;;;;;;;4991094;28;20423;-49
2022/03/03 10:00:36;;;;;;;17.90;13.70;;;;;;;;;;4992043;28;20438;-48
2022/03/03 10:03:08;;;;;;;16.10;12.33;;;;;;;;;;4991394;28;20496;-49
2022/03/03 10:05:35;;;;;;;14.93;11.83;;;;;;;;;;4991949;28;20417;-48
2022/03/03 10:08:03;;;;;;;12.40;10.00;;;;;;;;;;4991723;28;20403;-48
2022/03/03 10:10:29;;;;;;;12.80;11.00;;;;;;;;;;4991869;28;20423;-52
2022/03/03 10:12:57;;;;;;;13.70;11.30;;;;;;;;;;4991767;28;20824;-52
2022/03/03 10:15:30;;;;;;;14.63;10.70;;;;;;;;;;4992224;28;20429;-48
2022/03/03 10:18:26;;;;;;;13.77;10.53;;;;;;;;;;4983685;28;20434;-48
2022/03/03 10:20:58;;;;;;;15.00;12.03;;;;;;;;;;4983694;28;20423;-49
2022/03/03 10:23:27;;;;;;;20.83;10.63;;;;;;;;;;4991425;28;20460;-47
2022/03/03 10:25:53;;;;;;;12.97;10.00;;;;;;;;;;4991822;28;20498;-47
2022/03/03 10:28:30;;;;;;;11.10;9.73;;;;;;;;;;4990535;28;20459;-47
2022/03/03 10:31:02;;;;;;;13.10;10.80;;;;;;;;;;4991716;28;20510;-49
2022/03/03 10:33:30;;;;;;;17.27;10.50;;;;;;;;;;4991357;28;20450;-47
2022/03/03 10:35:59;;;;;;;14.93;9.37;;;;;;;;;;4991664;28;20942;-47
2022/03/03 10:38:25;;;;;;;12.60;10.00;;;;;;;;;;4991056;28;20451;-49
2022/03/03 10:40:51;;;;;;;14.93;10.70;;;;;;;;;;4991574;28;20408;-50
2022/03/03 10:43:17;;;;;;;12.57;10.40;;;;;;;;;;4991239;28;20533;-51
2022/03/03 10:46:00;;;;;;;14.30;10.67;;;;;;;;;;4991789;28;21130;-52
2022/03/03 10:48:27;;;;;;;13.10;10.90;;;;;;;;;;4990950;28;20480;-53
2022/03/03 10:50:54;;;;;;;15.93;11.03;;;;;;;;;;4991157;28;20455;-53
2022/03/03 10:53:21;;;;;;;14.33;10.43;;;;;;;;;;4989957;28;20434;-51
2022/03/03 10:56:19;;;;;;;11.83;10.57;;;;;;;;;;4990933;28;20412;-53
2022/03/03 10:58:46;;;;;;;14.13;11.57;;;;;;;;;;4990896;28;20427;-50
2022/03/03 11:01:13;;;;;;;14.37;12.63;;;;;;;;;;4990702;28;20435;-52
2022/03/03 11:03:40;;;;;;;12.60;11.40;;;;;;;;;;4991182;28;20459;-53
2022/03/03 11:06:07;;;;;;;14.17;10.37;;;;;;;;;;4973922;28;20461;-50
2022/03/03 11:08:34;;;;;;;11.10;10.10;;;;;;;;;;4990831;28;20424;-51
2022/03/03 11:11:00;;;;;;;10.87;9.73;;;;;;;;;;4991429;28;20404;-53
2022/03/03 11:13:26;;;;;;;12.40;11.10;;;;;;;;;;4991176;28;20426;-52
2022/03/03 11:15:52;;;;;;;12.67;10.80;;;;;;;;;;4991251;28;20892;-53
2022/03/03 11:18:19;;;;;;;12.90;11.50;;;;;;;;;;5006972;28;20777;-53
2022/03/03 11:20:51;;;;;;;16.10;11.80;;;;;;;;;;4991331;28;20783;-53
2022/03/03 11:23:17;;;;;;;11.10;9.50;;;;;;;;;;4991041;28;20451;-53
2022/03/03 11:25:47;;;;;;;11.07;9.97;;;;;;;;;;4991145;28;20400;-53
2022/03/03 11:28:15;;;;;;;14.63;11.13;;;;;;;;;;4973163;28;20443;-52
2022/03/03 11:30:44;;;;;;;12.97;10.37;;;;;;;;;;5000791;28;20410;-52
2022/03/03 11:33:35;;;;;;;11.27;9.97;;;;;;;;;;4990901;28;20419;-51
2022/03/03 11:36:03;;;;;;;12.33;10.50;;;;;;;;;;4984369;28;20430;-53
2022/03/03 11:38:44;;;;;;;14.20;10.90;;;;;;;;;;4991870;28;20427;-51
2022/03/03 11:41:10;;;;;;;12.60;11.00;;;;;;;;;;4994795;28;20404;-52
2022/03/03 11:43:47;;;;;;;10.90;9.80;;;;;;;;;;4994257;28;20514;-53
2022/03/03 11:46:13;;;;;;;14.57;10.93;;;;;;;;;;4993354;28;20962;-52
2022/03/03 11:48:40;;;;;;;14.73;10.67;;;;;;;;;;5007686;28;20450;-50
2022/03/03 11:51:25;;;;;;;11.80;10.03;;;;;;;;;;5013741;28;20439;-50
2022/03/03 11:53:52;;;;;;;13.63;9.93;;;;;;;;;;5013985;28;20433;-53
2022/03/03 11:56:18;;;;;;;12.87;9.97;;;;;;;;;;5000848;28;20443;-52
2022/03/03 11:58:44;;;;;;;12.80;9.83;;;;;;;;;;4993965;28;20432;-53
2022/03/03 12:01:14;;;;;;;11.27;9.73;;;;;;;;;;4993944;28;20495;-52
2022/03/03 12:03:58;;;;;;;11.10;9.53;;;;;;;;;;4999117;28;20816;-52
2022/03/03 12:06:35;;;;;;;12.30;10.37;;;;;;;;;;5013702;28;20827;-53
2022/03/03 12:09:15;;;;;;;12.53;9.87;;;;;;;;;;5012967;28;20418;-52
2022/03/03 12:11:41;;;;;;;14.07;11.57;;;;;;;;;;5013376;28;20498;-53
2022/03/03 12:14:27;;;;;;;12.90;10.93;;;;;;;;;;5013380;28;20502;-52
2022/03/03 12:16:53;;;;;;;12.53;11.23;;;;;;;;;;5013003;28;20538;-49
2022/03/03 12:19:19;;;;;;;11.27;10.20;;;;;;;;;;5012878;28;20497;-53
2022/03/03 12:21:45;;;;;;;13.30;11.80;;;;;;;;;;5013030;28;20457;-53
2022/03/03 12:24:17;;;;;;;19.27;11.90;;;;;;;;;;5012351;28;20406;-53
2022/03/03 12:26:55;;;;;;;12.43;10.13;;;;;;;;;;5013278;28;20819;-52
2022/03/03 12:29:29;;;;;;;11.17;9.97;;;;;;;;;;5012862;28;20957;-49
2022/03/03 12:31:55;;;;;;;13.77;10.23;;;;;;;;;;5013235;28;20402;-54
2022/03/03 12:34:21;;;;;;;13.03;9.90;;;;;;;;;;5013201;28;20731;-54
2022/03/03 12:36:53;;;;;;;12.80;9.27;;;;;;;;;;5013176;28;20417;-54
2022/03/03 12:39:19;;;;;;;15.43;10.63;;;;;;;;;;5012794;28;20521;-53
2022/03/03 12:41:45;;;;;;;11.50;10.30;;;;;;;;;;5012974;28;20869;-52
2022/03/03 12:44:13;;;;;;;13.53;10.40;;;;;;;;;;5012797;28;20414;-52
2022/03/03 12:46:40;;;;;;;11.53;10.30;;;;;;;;;;5013206;28;20406;-52
2022/03/03 12:49:06;;;;;;;11.90;10.70;;;;;;;;;;5012640;28;20912;-53
2022/03/03 12:51:32;;;;;;;11.73;10.53;;;;;;;;;;5002840;28;20807;-53
2022/03/03 12:54:02;;;;;;;14.87;12.37;;;;;;;;;;4993008;28;20428;-54
2022/03/03 12:56:30;;;;;;;12.83;11.50;;;;;;;;;;5003434;28;20415;-53
2022/03/03 12:58:57;;;;;;;12.20;10.90;;;;;;;;;;4992819;28;20424;-52
2022/03/03 13:01:24;;;;;;;13.30;11.30;;;;;;;;;;4973964;28;20452;-53
2022/03/03 13:03:50;;;;;;;11.97;10.70;;;;;;;;;;4977895;28;20784;-53
2022/03/03 13:06:19;;;;;;;11.80;10.57;;;;;;;;;;4992150;28;20941;-54
2022/03/03 13:08:45;;;;;;;13.90;9.90;;;;;;;;;;4992695;28;20482;-51
2022/03/03 13:11:16;;;;;;;11.80;10.60;;;;;;;;;;4992859;28;20400;-52
2022/03/03 13:13:49;;;;;;;14.63;10.90;;;;;;;;;;4992823;28;20966;-48
2022/03/03 13:16:19;;;;;;;12.50;10.30;;;;;;;;;;4992947;28;20405;-49
2022/03/03 13:18:45;;;;;;;11.80;10.10;;;;;;;;;;4992857;28;20930;-51
2022/03/03 13:21:12;;;;;;;12.20;10.20;;;;;;;;;;4992702;28;20411;-47
2022/03/03 13:23:42;;;;;;;13.53;11.27;;;;;;;;;;4992323;28;20455;-50
2022/03/03 13:26:10;;;;;;;12.03;10.80;;;;;;;;;;4992661;28;20494;-49
2022/03/03 13:28:46;;;;;;;12.10;10.13;;;;;;;;;;4992430;28;20765;-49
2022/03/03 13:31:13;;;;;;;12.13;10.87;;;;;;;;;;4992599;28;20404;-48
2022/03/03 13:33:41;;;;;;;13.83;10.83;;;;;;;;;;4992399;28;20892;-50
2022/03/03 13:36:11;;;;;;;17.40;10.60;;;;;;;;;;5000550;28;20426;-52
2022/03/03 13:38:39;;;;;;;13.50;11.00;;;;;;;;;;5011687;28;20459;-48
2022/03/03 13:41:19;;;;;;;13.30;10.37;;;;;;;;;;5012049;28;20403;-51
2022/03/03 13:43:45;;;;;;;13.23;11.10;;;;;;;;;;4977374;28;20474;-50
2022/03/03 13:46:10;;;;;;;19.30;11.37;;;;;;;;;;4992101;28;20417;-50
2022/03/03 13:48:36;;;;;;;13.40;11.20;;;;;;;;;;4991641;28;20489;-50
2022/03/03 13:51:03;;;;;;;14.33;11.27;;;;;;;;;;4991981;28;20422;-49
2022/03/03 13:53:32;;;;;;;17.37;11.30;;;;;;;;;;4992010;28;20435;-50
2022/03/03 13:56:04;;;;;;;20.60;11.80;;;;;;;;;;5006895;28;20925;-53
2022/03/03 13:58:29;;;;;;;15.67;12.20;;;;;;;;;;5011386;28;20429;-53
2022/03/03 14:00:55;;;;;;;12.80;11.50;;;;;;;;;;5011566;28;20410;-52
2022/03/03 14:03:32;;;;;;;14.60;11.43;;;;;;;;;;5011771;28;20481;-54
2022/03/03 14:06:03;;;;;;;12.30;10.90;;;;;;;;;;5011533;28;20839;-53
2022/03/03 14:08:30;;;;;;;13.70;12.37;;;;;;;;;;5011411;28;20438;-52
2022/03/03 14:10:56;;;;;;;12.57;11.10;;;;;;;;;;5010685;28;20407;-53
2022/03/03 14:13:23;;;;;;;16.90;11.80;;;;;;;;;;5010567;28;20404;-52
2022/03/03 14:15:50;;;;;;;12.70;10.90;;;;;;;;;;5010341;28;20399;-53
2022/03/03 14:18:17;;;;;;;12.20;10.23;;;;;;;;;;5011140;28;20480;-52
2022/03/03 14:20:43;;;;;;;13.70;10.70;;;;;;;;;;5011330;28;20415;-53
2022/03/03 14:23:09;;;;;;;11.87;10.77;;;;;;;;;;5011323;28;20481;-53
2022/03/03 14:25:35;;;;;;;10.30;9.20;;;;;;;;;;5011399;28;20427;-53